Time;durP1;ratioP1;P1;durP2;ratioP2;P2;SDS_P1;SDS_P2;PMS_P1;PMS_P2;Temp;Humidity;BMP_temperature;BMP_pressure;BME280_temperature;BME280_humidity;BME280_pressure;Samples;Min_cycle;Max_cycle;Signal;HPM_P1;HPM_P2
2022/07/23 00:00:26;;;;;;;6.30;3.20;;;;;;;;;;5063928;28;20114;-83
2022/07/23 00:02:52;;;;;;;4.22;3.33;;;;;;;;;;5059307;28;20059;-83
2022/07/23 00:05:17;;;;;;;3.22;2.92;;;;;;;;;;5055515;28;20048;-81
2022/07/23 00:07:42;;;;;;;5.28;3.08;;;;;;;;;;5061293;28;20031;-83
2022/07/23 00:10:08;;;;;;;6.88;2.97;;;;;;;;;;5075272;28;20021;-82
2022/07/23 00:12:34;;;;;;;5.20;3.03;;;;;;;;;;5061779;28;20036;-84
2022/07/23 00:15:00;;;;;;;3.38;2.97;;;;;;;;;;5057982;28;20036;-83
2022/07/23 00:17:25;;;;;;;3.72;2.65;;;;;;;;;;5066407;28;20025;-83
2022/07/23 00:19:51;;;;;;;6.75;3.10;;;;;;;;;;5075909;28;20449;-84
2022/07/23 00:22:16;;;;;;;6.65;2.80;;;;;;;;;;5059741;28;21333;-83
2022/07/23 00:24:42;;;;;;;4.10;2.70;;;;;;;;;;5065210;28;20024;-83
2022/07/23 00:27:07;;;;;;;3.58;3.08;;;;;;;;;;5049115;28;20024;-83
2022/07/23 00:29:32;;;;;;;5.93;3.13;;;;;;;;;;5067859;28;20475;-83
2022/07/23 00:31:58;;;;;;;4.90;3.22;;;;;;;;;;5055884;28;20029;-83
2022/07/23 00:34:23;;;;;;;6.63;2.80;;;;;;;;;;5058095;28;20029;-83
2022/07/23 00:36:48;;;;;;;3.60;2.80;;;;;;;;;;5048625;28;20788;-83
2022/07/23 00:39:14;;;;;;;3.83;3.15;;;;;;;;;;5047555;28;20032;-83
2022/07/23 00:41:39;;;;;;;3.13;2.50;;;;;;;;;;5054027;28;20030;-83
2022/07/23 00:44:25;;;;;;;3.28;2.60;;;;;;;;;;5055318;28;20463;-83
2022/07/23 00:46:53;;;;;;;5.53;3.22;;;;;;;;;;5052545;28;20064;-83
2022/07/23 00:49:29;;;;;;;4.30;2.90;;;;;;;;;;5050211;28;20093;-81
2022/07/23 00:51:55;;;;;;;3.42;2.88;;;;;;;;;;5053229;28;20107;-82
2022/07/23 00:54:23;;;;;;;3.63;2.90;;;;;;;;;;5052004;28;20032;-80
2022/07/23 00:56:49;;;;;;;4.93;2.95;;;;;;;;;;5046539;28;20024;-81
2022/07/23 00:59:14;;;;;;;3.33;2.78;;;;;;;;;;5067725;28;20020;-81
2022/07/23 01:01:40;;;;;;;5.65;3.10;;;;;;;;;;5067170;28;20360;-81
2022/07/23 01:04:06;;;;;;;3.85;2.90;;;;;;;;;;5058844;28;20029;-82
2022/07/23 01:06:38;;;;;;;4.22;3.10;;;;;;;;;;5046848;28;20048;-82
2022/07/23 01:09:05;;;;;;;3.05;2.70;;;;;;;;;;5054112;28;20021;-80
2022/07/23 01:11:33;;;;;;;4.25;2.95;;;;;;;;;;5053896;28;20399;-82
2022/07/23 01:13:59;;;;;;;4.70;3.58;;;;;;;;;;5057899;28;20029;-82
2022/07/23 01:16:24;;;;;;;8.05;3.22;;;;;;;;;;5063680;28;20144;-83
2022/07/23 01:18:49;;;;;;;4.20;2.92;;;;;;;;;;5064381;28;20104;-82
2022/07/23 01:21:18;;;;;;;4.80;3.10;;;;;;;;;;5057596;28;20103;-81
2022/07/23 01:23:43;;;;;;;4.55;3.03;;;;;;;;;;5055636;28;20388;-81
2022/07/23 01:26:09;;;;;;;5.82;3.00;;;;;;;;;;5053770;28;20520;-82
2022/07/23 01:28:34;;;;;;;5.50;3.00;;;;;;;;;;5037247;28;20411;-81
2022/07/23 01:31:00;;;;;;;5.68;2.90;;;;;;;;;;5055126;28;20043;-83
2022/07/23 01:33:25;;;;;;;5.82;3.10;;;;;;;;;;5052801;28;20121;-81
2022/07/23 01:35:50;;;;;;;3.67;3.03;;;;;;;;;;5057637;28;20033;-81
2022/07/23 01:38:16;;;;;;;6.40;3.28;;;;;;;;;;5051086;28;20467;-81
2022/07/23 01:40:41;;;;;;;6.07;3.42;;;;;;;;;;5062432;28;20052;-81
2022/07/23 01:43:06;;;;;;;3.50;2.90;;;;;;;;;;5061841;28;20028;-82
2022/07/23 01:45:32;;;;;;;4.18;3.33;;;;;;;;;;5057158;28;20029;-81
2022/07/23 01:47:57;;;;;;;5.88;3.00;;;;;;;;;;5068133;28;20021;-81
2022/07/23 01:50:23;;;;;;;5.45;3.15;;;;;;;;;;5056984;28;20025;-81
2022/07/23 01:52:48;;;;;;;4.93;3.13;;;;;;;;;;5062265;28;20017;-81
2022/07/23 01:55:13;;;;;;;3.88;2.90;;;;;;;;;;5054614;28;20021;-81
2022/07/23 01:57:39;;;;;;;4.05;2.90;;;;;;;;;;5036338;28;20024;-81
2022/07/23 02:00:04;;;;;;;6.63;3.28;;;;;;;;;;5036942;28;20405;-81
2022/07/23 02:02:30;;;;;;;5.55;3.03;;;;;;;;;;5071769;28;20082;-82
2022/07/23 02:04:55;;;;;;;4.85;3.10;;;;;;;;;;5044316;28;20024;-81
2022/07/23 02:07:20;;;;;;;6.43;3.33;;;;;;;;;;5064815;28;20104;-83
2022/07/23 02:09:46;;;;;;;3.85;2.97;;;;;;;;;;5057951;28;20039;-82
2022/07/23 02:12:11;;;;;;;6.72;3.13;;;;;;;;;;5058207;28;20079;-82
2022/07/23 02:14:36;;;;;;;5.60;3.42;;;;;;;;;;5041765;28;20119;-81
2022/07/23 02:17:02;;;;;;;3.83;3.20;;;;;;;;;;5045611;28;20056;-82
2022/07/23 02:19:27;;;;;;;4.57;2.97;;;;;;;;;;5056133;28;20103;-82
2022/07/23 02:21:54;;;;;;;3.67;2.72;;;;;;;;;;5057067;28;20131;-83
2022/07/23 02:24:20;;;;;;;3.53;3.10;;;;;;;;;;5054208;28;20028;-82
2022/07/23 02:26:45;;;;;;;4.30;3.20;;;;;;;;;;5038771;28;20028;-80
2022/07/23 02:29:11;;;;;;;5.00;3.40;;;;;;;;;;5072796;28;20028;-80
2022/07/23 02:31:36;;;;;;;4.95;3.20;;;;;;;;;;5059357;28;20068;-82
2022/07/23 02:34:02;;;;;;;5.10;3.05;;;;;;;;;;5032924;28;20013;-80
2022/07/23 02:36:29;;;;;;;5.32;2.83;;;;;;;;;;5054049;28;20040;-81
2022/07/23 02:38:54;;;;;;;3.35;3.05;;;;;;;;;;5057596;28;20206;-82
2022/07/23 02:41:20;;;;;;;4.32;3.38;;;;;;;;;;5049744;28;20100;-82
2022/07/23 02:43:45;;;;;;;4.70;3.40;;;;;;;;;;5052953;28;20033;-83
2022/07/23 02:46:10;;;;;;;4.45;3.17;;;;;;;;;;5059938;28;20021;-82
2022/07/23 02:48:36;;;;;;;3.78;3.10;;;;;;;;;;5060737;28;20032;-82
2022/07/23 02:51:01;;;;;;;4.28;3.10;;;;;;;;;;5059971;28;20079;-82
2022/07/23 02:53:26;;;;;;;4.82;3.30;;;;;;;;;;5056159;28;20109;-81
2022/07/23 02:55:52;;;;;;;4.47;3.60;;;;;;;;;;5037624;28;20460;-82
2022/07/23 02:58:17;;;;;;;4.70;3.30;;;;;;;;;;5060943;28;20012;-82
2022/07/23 03:00:43;;;;;;;6.07;3.38;;;;;;;;;;5036400;28;20020;-81
2022/07/23 03:03:08;;;;;;;6.22;3.42;;;;;;;;;;5038612;28;20028;-82
2022/07/23 03:05:34;;;;;;;4.38;3.42;;;;;;;;;;5055961;28;20051;-82
2022/07/23 03:07:59;;;;;;;4.95;3.22;;;;;;;;;;5061358;28;20013;-82
2022/07/23 03:10:25;;;;;;;3.50;3.00;;;;;;;;;;5062321;28;20024;-81
2022/07/23 03:12:50;;;;;;;6.07;3.30;;;;;;;;;;5066432;28;20020;-81
2022/07/23 03:15:16;;;;;;;5.15;3.45;;;;;;;;;;5053613;28;20021;-81
2022/07/23 03:17:41;;;;;;;4.80;3.75;;;;;;;;;;5061924;28;20387;-81
2022/07/23 03:20:07;;;;;;;7.93;3.83;;;;;;;;;;5059920;28;20025;-81
2022/07/23 03:22:32;;;;;;;7.75;3.55;;;;;;;;;;5056642;28;20021;-81
2022/07/23 03:24:58;;;;;;;4.57;3.75;;;;;;;;;;5054715;28;20082;-80
2022/07/23 03:27:25;;;;;;;5.03;3.58;;;;;;;;;;5056875;28;20028;-82
2022/07/23 03:29:52;;;;;;;5.60;3.70;;;;;;;;;;5054242;28;20021;-80
2022/07/23 03:32:17;;;;;;;3.88;3.05;;;;;;;;;;5057938;28;20028;-82
2022/07/23 03:34:43;;;;;;;3.88;3.47;;;;;;;;;;5057620;28;20391;-81
2022/07/23 03:37:08;;;;;;;6.53;3.60;;;;;;;;;;5057486;28;20123;-81
2022/07/23 03:39:33;;;;;;;3.72;3.00;;;;;;;;;;5040833;28;20017;-80
2022/07/23 03:41:59;;;;;;;4.43;3.42;;;;;;;;;;5040636;28;20043;-81
2022/07/23 03:44:24;;;;;;;4.47;3.30;;;;;;;;;;5060767;28;20092;-82
2022/07/23 03:46:50;;;;;;;4.93;2.95;;;;;;;;;;5059877;28;20083;-81
2022/07/23 03:49:15;;;;;;;4.55;3.13;;;;;;;;;;5070340;28;20021;-83
2022/07/23 03:51:41;;;;;;;4.80;3.65;;;;;;;;;;5071976;28;20036;-83
2022/07/23 03:54:06;;;;;;;5.10;3.25;;;;;;;;;;5063760;28;20585;-82
2022/07/23 03:56:32;;;;;;;4.40;3.35;;;;;;;;;;5041939;28;20021;-81
2022/07/23 03:58:57;;;;;;;5.55;3.30;;;;;;;;;;5057867;28;20126;-81
2022/07/23 04:01:22;;;;;;;3.40;2.92;;;;;;;;;;5059006;28;20028;-83
2022/07/23 04:03:48;;;;;;;3.88;3.08;;;;;;;;;;5047392;28;20033;-81
2022/07/23 04:06:13;;;;;;;3.55;3.25;;;;;;;;;;5043007;28;20058;-82
2022/07/23 04:08:38;;;;;;;3.63;3.10;;;;;;;;;;5056455;28;20029;-82
2022/07/23 04:11:04;;;;;;;4.82;3.40;;;;;;;;;;5065714;28;20020;-82
2022/07/23 04:13:29;;;;;;;4.20;3.30;;;;;;;;;;5068299;28;20021;-81
2022/07/23 04:15:55;;;;;;;3.30;2.92;;;;;;;;;;5077352;28;20033;-82
2022/07/23 04:18:23;;;;;;;3.10;2.80;;;;;;;;;;5072690;28;20013;-82
2022/07/23 04:20:50;;;;;;;4.13;3.42;;;;;;;;;;5076573;28;20024;-80
2022/07/23 04:23:16;;;;;;;5.32;3.60;;;;;;;;;;5076213;28;20043;-80
2022/07/23 04:25:42;;;;;;;4.25;3.25;;;;;;;;;;5093653;28;20090;-80
2022/07/23 04:28:07;;;;;;;6.00;3.33;;;;;;;;;;5072851;28;20029;-80
2022/07/23 04:30:33;;;;;;;4.28;3.50;;;;;;;;;;5076433;28;20032;-81
2022/07/23 04:32:59;;;;;;;4.43;3.38;;;;;;;;;;5059328;28;20020;-82
2022/07/23 04:35:24;;;;;;;5.07;3.55;;;;;;;;;;5078382;28;20107;-81
2022/07/23 04:37:50;;;;;;;4.85;3.30;;;;;;;;;;5057850;28;20391;-82
2022/07/23 04:40:15;;;;;;;5.13;3.38;;;;;;;;;;5040672;28;20040;-82
2022/07/23 04:42:40;;;;;;;6.47;3.45;;;;;;;;;;5053147;28;20040;-82
2022/07/23 04:45:06;;;;;;;4.38;3.47;;;;;;;;;;5055481;28;20045;-81
2022/07/23 04:47:32;;;;;;;7.50;3.40;;;;;;;;;;5060428;28;20033;-82
2022/07/23 04:49:57;;;;;;;5.47;3.15;;;;;;;;;;5057669;28;20091;-81
2022/07/23 04:52:23;;;;;;;4.05;3.10;;;;;;;;;;5065520;28;20060;-81
2022/07/23 04:54:49;;;;;;;8.35;3.40;;;;;;;;;;5055611;28;20028;-81
2022/07/23 04:57:14;;;;;;;4.18;3.03;;;;;;;;;;5056556;28;20044;-81
2022/07/23 04:59:40;;;;;;;11.13;3.50;;;;;;;;;;5067749;28;20050;-81
2022/07/23 05:02:05;;;;;;;7.05;3.22;;;;;;;;;;5047124;28;20044;-82
2022/07/23 05:04:31;;;;;;;8.27;3.00;;;;;;;;;;5067313;28;20029;-80
2022/07/23 05:06:57;;;;;;;4.00;3.00;;;;;;;;;;5064556;28;20017;-81
2022/07/23 05:09:23;;;;;;;4.60;3.60;;;;;;;;;;5057513;28;20024;-81
2022/07/23 05:11:48;;;;;;;7.35;3.35;;;;;;;;;;5060789;28;20032;-81
2022/07/23 05:14:14;;;;;;;6.82;3.80;;;;;;;;;;5063406;28;20030;-81
2022/07/23 05:16:39;;;;;;;8.55;3.53;;;;;;;;;;5056081;28;20036;-81
2022/07/23 05:19:05;;;;;;;5.75;3.40;;;;;;;;;;5057067;28;20028;-82
2022/07/23 05:21:30;;;;;;;4.25;3.22;;;;;;;;;;5056056;28;20060;-85
2022/07/23 05:23:55;;;;;;;5.90;3.50;;;;;;;;;;5039419;28;20466;-82
2022/07/23 05:26:21;;;;;;;4.68;3.30;;;;;;;;;;5039828;28;20037;-82
2022/07/23 05:28:46;;;;;;;4.25;3.33;;;;;;;;;;5058829;28;20099;-82
2022/07/23 05:31:12;;;;;;;4.13;3.22;;;;;;;;;;5077354;28;20030;-82
2022/07/23 05:33:37;;;;;;;4.07;3.15;;;;;;;;;;5059117;28;20029;-81
2022/07/23 05:36:04;;;;;;;3.90;3.25;;;;;;;;;;5057577;28;20033;-82
2022/07/23 05:38:30;;;;;;;4.05;3.15;;;;;;;;;;5057075;28;20661;-82
2022/07/23 05:40:55;;;;;;;7.60;3.58;;;;;;;;;;5039528;28;20039;-82
2022/07/23 05:43:21;;;;;;;17.10;3.47;;;;;;;;;;5055922;28;20053;-81
2022/07/23 05:45:46;;;;;;;11.82;4.03;;;;;;;;;;5057683;28;20029;-81
2022/07/23 05:48:12;;;;;;;10.63;3.80;;;;;;;;;;5036027;28;20021;-82
2022/07/23 05:50:38;;;;;;;4.53;3.35;;;;;;;;;;5074082;28;20482;-81
2022/07/23 05:53:03;;;;;;;4.85;3.67;;;;;;;;;;5040518;28;20039;-82
2022/07/23 05:55:31;;;;;;;5.55;3.88;;;;;;;;;;5037997;28;20025;-82
2022/07/23 05:57:57;;;;;;;6.13;4.07;;;;;;;;;;5043299;28;20028;-84
2022/07/23 06:00:23;;;;;;;5.10;3.80;;;;;;;;;;5056904;28;20029;-83
2022/07/23 06:02:48;;;;;;;6.95;4.28;;;;;;;;;;5057135;28;20020;-82
2022/07/23 06:05:14;;;;;;;6.32;3.63;;;;;;;;;;5070173;28;20372;-81
2022/07/23 06:07:39;;;;;;;5.80;3.67;;;;;;;;;;5052568;28;20072;-82
2022/07/23 06:10:05;;;;;;;4.97;3.72;;;;;;;;;;5058302;28;20031;-81
2022/07/23 06:12:31;;;;;;;6.68;3.67;;;;;;;;;;5063920;28;20124;-84
2022/07/23 06:14:56;;;;;;;10.80;4.03;;;;;;;;;;5056501;28;20033;-84
2022/07/23 06:17:22;;;;;;;4.60;3.30;;;;;;;;;;5051913;28;20055;-84
2022/07/23 06:19:47;;;;;;;6.57;3.30;;;;;;;;;;5057140;28;20506;-82
2022/07/23 06:22:12;;;;;;;5.28;3.58;;;;;;;;;;5054339;28;20020;-82
2022/07/23 06:24:38;;;;;;;5.60;3.40;;;;;;;;;;5056546;28;20063;-84
2022/07/23 06:27:03;;;;;;;7.20;3.90;;;;;;;;;;5052181;28;20017;-82
2022/07/23 06:29:29;;;;;;;4.30;3.47;;;;;;;;;;5035489;28;20022;-82
2022/07/23 06:31:54;;;;;;;6.97;3.65;;;;;;;;;;5018159;28;20112;-83
2022/07/23 06:34:19;;;;;;;5.72;4.13;;;;;;;;;;5045510;28;20052;-82
2022/07/23 06:36:45;;;;;;;6.70;3.88;;;;;;;;;;5054156;28;20024;-82
2022/07/23 06:39:10;;;;;;;6.22;3.95;;;;;;;;;;5053469;28;20423;-82
2022/07/23 06:41:36;;;;;;;8.60;4.22;;;;;;;;;;5054055;28;20607;-81
2022/07/23 06:44:01;;;;;;;5.60;3.92;;;;;;;;;;5054313;28;20090;-82
2022/07/23 06:46:27;;;;;;;6.93;3.92;;;;;;;;;;5053660;28;20531;-80
2022/07/23 06:48:52;;;;;;;7.60;3.90;;;;;;;;;;5054164;28;20009;-81
2022/07/23 06:51:17;;;;;;;12.10;3.70;;;;;;;;;;5054066;28;20029;-82
2022/07/23 06:53:43;;;;;;;4.90;3.85;;;;;;;;;;5054911;28;20079;-81
2022/07/23 06:56:08;;;;;;;5.70;4.18;;;;;;;;;;5036135;28;20025;-80
2022/07/23 06:58:33;;;;;;;7.05;3.90;;;;;;;;;;5053457;28;20025;-80
2022/07/23 07:00:59;;;;;;;7.53;4.00;;;;;;;;;;5053190;28;20025;-83
2022/07/23 07:03:24;;;;;;;8.23;4.13;;;;;;;;;;5053890;28;20029;-81
2022/07/23 07:05:49;;;;;;;6.47;4.30;;;;;;;;;;5043218;28;20087;-83
2022/07/23 07:08:15;;;;;;;6.95;4.70;;;;;;;;;;5054864;28;20060;-82
2022/07/23 07:10:41;;;;;;;5.25;3.95;;;;;;;;;;5036032;28;20493;-82
2022/07/23 07:13:07;;;;;;;9.25;4.53;;;;;;;;;;5035663;28;20553;-82
2022/07/23 07:15:32;;;;;;;6.15;4.45;;;;;;;;;;5054240;28;20028;-81
2022/07/23 07:17:57;;;;;;;5.72;4.22;;;;;;;;;;5035745;28;20048;-81
2022/07/23 07:20:23;;;;;;;6.25;4.35;;;;;;;;;;5035360;28;20116;-83
2022/07/23 07:22:49;;;;;;;7.32;4.63;;;;;;;;;;5035089;28;20024;-80
2022/07/23 07:25:15;;;;;;;7.32;4.72;;;;;;;;;;5062304;28;20020;-81
2022/07/23 07:27:46;;;;;;;9.52;5.15;;;;;;;;;;5043586;28;20044;-81
2022/07/23 07:30:12;;;;;;;6.43;4.82;;;;;;;;;;5035375;28;20120;-81
2022/07/23 07:32:39;;;;;;;6.68;5.05;;;;;;;;;;5035516;28;20068;-82
2022/07/23 07:35:06;;;;;;;8.13;5.43;;;;;;;;;;5053637;28;20028;-81
2022/07/23 07:37:31;;;;;;;10.35;5.53;;;;;;;;;;5052979;28;20025;-81
2022/07/23 07:39:58;;;;;;;9.43;5.60;;;;;;;;;;5034960;28;20449;-82
2022/07/23 07:42:24;;;;;;;8.90;5.55;;;;;;;;;;5035511;28;20372;-82
2022/07/23 07:44:49;;;;;;;8.35;5.63;;;;;;;;;;5053301;28;20518;-83
2022/07/23 07:47:15;;;;;;;7.15;4.82;;;;;;;;;;5034942;28;20080;-80
2022/07/23 07:49:41;;;;;;;6.60;4.95;;;;;;;;;;5033486;28;20044;-81
2022/07/23 07:52:07;;;;;;;11.70;5.07;;;;;;;;;;5034816;28;20080;-81
2022/07/23 07:54:32;;;;;;;6.80;4.90;;;;;;;;;;5060379;28;20025;-82
2022/07/23 07:56:58;;;;;;;6.43;4.28;;;;;;;;;;5063326;28;20100;-80
2022/07/23 07:59:23;;;;;;;6.32;5.18;;;;;;;;;;5053310;28;20055;-82
2022/07/23 08:01:49;;;;;;;5.53;4.30;;;;;;;;;;5061260;28;20021;-81
2022/07/23 08:04:14;;;;;;;7.47;4.88;;;;;;;;;;5035086;28;20020;-80
2022/07/23 08:06:39;;;;;;;6.53;4.65;;;;;;;;;;5034825;28;20028;-82
2022/07/23 08:09:05;;;;;;;8.00;4.72;;;;;;;;;;5060293;28;20075;-81
2022/07/23 08:11:32;;;;;;;4.75;3.95;;;;;;;;;;5051742;28;20125;-79
2022/07/23 08:13:57;;;;;;;5.22;3.90;;;;;;;;;;5052580;28;20017;-81
2022/07/23 08:16:22;;;;;;;6.00;4.38;;;;;;;;;;5052078;28;20104;-83
2022/07/23 08:18:48;;;;;;;5.78;4.20;;;;;;;;;;5056198;28;20017;-81
2022/07/23 08:21:13;;;;;;;6.63;3.70;;;;;;;;;;5056462;28;20028;-81
2022/07/23 08:23:39;;;;;;;4.40;3.97;;;;;;;;;;5058856;28;20035;-84
2022/07/23 08:26:04;;;;;;;6.70;3.95;;;;;;;;;;5062446;28;20029;-81
2022/07/23 08:28:32;;;;;;;7.03;4.57;;;;;;;;;;5052589;28;20017;-81
2022/07/23 08:30:58;;;;;;;5.05;4.10;;;;;;;;;;5051701;28;20033;-80
2022/07/23 08:33:24;;;;;;;6.00;4.28;;;;;;;;;;5056173;28;20025;-81
2022/07/23 08:35:52;;;;;;;5.70;3.72;;;;;;;;;;5056307;28;20025;-82
2022/07/23 08:38:20;;;;;;;6.57;4.22;;;;;;;;;;5056242;28;20017;-82
2022/07/23 08:40:48;;;;;;;4.50;3.67;;;;;;;;;;5038379;28;20021;-82
2022/07/23 08:43:16;;;;;;;5.60;3.85;;;;;;;;;;5055530;28;20071;-83
2022/07/23 08:45:45;;;;;;;5.50;4.10;;;;;;;;;;5047235;28;20036;-83
2022/07/23 08:48:19;;;;;;;6.82;4.22;;;;;;;;;;5057392;28;20116;-81
2022/07/23 08:50:57;;;;;;;4.75;3.83;;;;;;;;;;5054844;28;20108;-82
2022/07/23 08:53:24;;;;;;;3.80;3.38;;;;;;;;;;5043189;28;20025;-82
2022/07/23 08:55:51;;;;;;;3.35;3.05;;;;;;;;;;5054795;28;20021;-82
2022/07/23 08:58:18;;;;;;;4.40;3.08;;;;;;;;;;5055322;28;20088;-82
2022/07/23 09:00:44;;;;;;;4.57;3.42;;;;;;;;;;5038114;28;20123;-82
2022/07/23 09:03:30;;;;;;;4.07;3.38;;;;;;;;;;5061399;28;20017;-82
2022/07/23 09:05:57;;;;;;;4.55;3.92;;;;;;;;;;5055231;28;20017;-82
2022/07/23 09:08:25;;;;;;;4.75;3.17;;;;;;;;;;5033982;28;20395;-83
2022/07/23 09:10:53;;;;;;;6.20;3.50;;;;;;;;;;5059739;28;20032;-83
2022/07/23 09:13:43;;;;;;;6.28;3.15;;;;;;;;;;5034413;28;20024;-82
2022/07/23 09:16:12;;;;;;;3.80;3.17;;;;;;;;;;5056516;28;20091;-82
2022/07/23 09:19:00;;;;;;;4.05;3.38;;;;;;;;;;5054956;28;20021;-82
2022/07/23 09:21:31;;;;;;;4.07;3.25;;;;;;;;;;5056010;28;20036;-83
2022/07/23 09:24:02;;;;;;;6.03;3.60;;;;;;;;;;5038151;28;20399;-82
2022/07/23 09:26:31;;;;;;;5.28;3.50;;;;;;;;;;5038176;28;20025;-83
2022/07/23 09:29:07;;;;;;;4.22;3.70;;;;;;;;;;5053509;28;20021;-80
2022/07/23 09:31:53;;;;;;;4.68;3.42;;;;;;;;;;5034507;28;20402;-83
2022/07/23 09:34:28;;;;;;;3.53;3.17;;;;;;;;;;5069344;28;20438;-83
2022/07/23 09:36:56;;;;;;;4.50;3.03;;;;;;;;;;5051810;28;20037;-82
2022/07/23 09:39:28;;;;;;;5.85;3.25;;;;;;;;;;5054907;28;20020;-84
2022/07/23 09:41:53;;;;;;;5.80;3.60;;;;;;;;;;5019220;28;20033;-84
2022/07/23 09:44:20;;;;;;;5.00;3.60;;;;;;;;;;5020203;28;20025;-83
2022/07/23 09:46:48;;;;;;;6.80;3.65;;;;;;;;;;5035863;28;20027;-83
2022/07/23 09:49:16;;;;;;;6.07;4.05;;;;;;;;;;5064102;28;20021;-83
2022/07/23 09:51:48;;;;;;;6.15;3.47;;;;;;;;;;5067147;28;20491;-84
2022/07/23 09:54:43;;;;;;;6.30;3.33;;;;;;;;;;5045179;28;20021;-83
2022/07/23 09:57:15;;;;;;;4.93;3.28;;;;;;;;;;5040790;28;20032;-83
2022/07/23 09:59:41;;;;;;;4.13;3.30;;;;;;;;;;5059038;28;20017;-82
2022/07/23 10:02:08;;;;;;;3.45;2.88;;;;;;;;;;5055701;28;20021;-82
2022/07/23 10:04:34;;;;;;;3.88;3.28;;;;;;;;;;5038411;28;20210;-82
2022/07/23 10:07:03;;;;;;;3.90;3.20;;;;;;;;;;5037151;28;20040;-82
2022/07/23 10:09:42;;;;;;;4.20;3.55;;;;;;;;;;5053138;28;20029;-83
2022/07/23 10:14:40;;;;;;;4.53;3.05;;;;;;;;;;5034895;28;20430;-82
2022/07/23 10:17:06;;;;;;;5.50;3.30;;;;;;;;;;5041666;28;20021;-82
2022/07/23 10:19:32;;;;;;;5.25;3.20;;;;;;;;;;5053296;28;20082;-79
2022/07/23 10:22:01;;;;;;;4.63;3.25;;;;;;;;;;5059735;28;20095;-79
2022/07/23 10:25:04;;;;;;;7.72;3.78;;;;;;;;;;5056852;28;20033;-79
2022/07/23 10:27:48;;;;;;;4.57;3.38;;;;;;;;;;5055779;28;20059;-79
2022/07/23 10:30:25;;;;;;;3.85;3.38;;;;;;;;;;5058598;28;20379;-78
2022/07/23 10:33:06;;;;;;;4.95;3.60;;;;;;;;;;5039740;28;20134;-78
2022/07/23 10:35:36;;;;;;;6.93;4.27;;;;;;;;;;5052569;28;20460;-80
2022/07/23 10:38:14;;;;;;;8.13;7.32;;;;;;;;;;5051096;28;20032;-79
2022/07/23 10:40:57;;;;;;;5.15;3.63;;;;;;;;;;5071628;28;20028;-79
2022/07/23 10:43:23;;;;;;;4.05;3.47;;;;;;;;;;5059970;28;20053;-80
2022/07/23 10:45:49;;;;;;;4.15;3.25;;;;;;;;;;5041364;28;20025;-79
2022/07/23 10:48:15;;;;;;;4.32;3.65;;;;;;;;;;5056225;28;20017;-78
2022/07/23 10:50:42;;;;;;;5.10;3.55;;;;;;;;;;5044180;28;20059;-79
2022/07/23 10:53:18;;;;;;;4.55;3.58;;;;;;;;;;5060000;28;20368;-80
2022/07/23 10:55:50;;;;;;;4.28;3.65;;;;;;;;;;5042486;28;20044;-80
2022/07/23 10:58:21;;;;;;;4.45;3.28;;;;;;;;;;5047358;28;20076;-80
2022/07/23 11:00:46;;;;;;;3.75;3.13;;;;;;;;;;5064550;28;20030;-79
2022/07/23 11:03:32;;;;;;;3.83;3.17;;;;;;;;;;5064051;28;20031;-78
2022/07/23 11:05:57;;;;;;;4.28;3.15;;;;;;;;;;5064478;28;20483;-79
2022/07/23 11:08:23;;;;;;;4.22;3.22;;;;;;;;;;5057010;28;20056;-79
2022/07/23 11:11:07;;;;;;;5.05;3.50;;;;;;;;;;5057136;28;20107;-79
2022/07/23 11:13:40;;;;;;;4.75;3.10;;;;;;;;;;5062863;28;20029;-79
2022/07/23 11:16:15;;;;;;;5.20;3.38;;;;;;;;;;5061668;28;20533;-79
2022/07/23 11:18:43;;;;;;;3.28;2.92;;;;;;;;;;5062057;28;20056;-79
2022/07/23 11:21:20;;;;;;;4.03;3.15;;;;;;;;;;5063301;28;20463;-82
2022/07/23 11:23:59;;;;;;;4.65;3.58;;;;;;;;;;5063127;28;20108;-79
2022/07/23 11:26:40;;;;;;;5.38;3.40;;;;;;;;;;5063139;28;20423;-79
2022/07/23 11:32:01;;;;;;;4.28;3.33;;;;;;;;;;5063343;28;20036;-79
2022/07/23 11:34:38;;;;;;;3.97;3.28;;;;;;;;;;5063139;28;20491;-79
2022/07/23 11:37:05;;;;;;;6.47;3.80;;;;;;;;;;5057802;28;20028;-81
2022/07/23 11:39:46;;;;;;;4.70;3.13;;;;;;;;;;5057375;28;20426;-87
2022/07/23 11:42:20;;;;;;;4.68;3.53;;;;;;;;;;5042673;28;20460;-87
2022/07/23 11:44:47;;;;;;;4.07;3.67;;;;;;;;;;5026681;28;20025;-83
2022/07/23 11:47:13;;;;;;;5.72;3.70;;;;;;;;;;5059957;28;20024;-83
2022/07/23 11:49:53;;;;;;;4.88;3.65;;;;;;;;;;5065156;28;20163;-83
2022/07/23 11:52:18;;;;;;;4.38;3.40;;;;;;;;;;5056837;28;20025;-81
2022/07/23 11:54:47;;;;;;;4.47;3.38;;;;;;;;;;5060622;28;20056;-81
2022/07/23 11:57:13;;;;;;;5.43;3.80;;;;;;;;;;5061780;28;20360;-81
2022/07/23 11:59:39;;;;;;;5.40;3.63;;;;;;;;;;5042348;28;20053;-81
2022/07/23 12:02:06;;;;;;;4.93;3.38;;;;;;;;;;5040569;28;20033;-82
2022/07/23 12:04:46;;;;;;;4.60;3.67;;;;;;;;;;5041326;28;20029;-81
2022/07/23 12:07:27;;;;;;;4.28;3.88;;;;;;;;;;5051749;28;20028;-82
2022/07/23 12:09:53;;;;;;;3.90;3.50;;;;;;;;;;5062975;28;20016;-82
2022/07/23 12:12:19;;;;;;;4.85;3.65;;;;;;;;;;5068441;28;20445;-81
2022/07/23 12:14:52;;;;;;;4.65;3.65;;;;;;;;;;5066402;28;20092;-82
2022/07/23 12:17:19;;;;;;;4.43;3.42;;;;;;;;;;5069515;28;20017;-81
2022/07/23 12:19:46;;;;;;;4.20;3.80;;;;;;;;;;5060686;28;20032;-81
2022/07/23 12:22:11;;;;;;;5.40;3.65;;;;;;;;;;5059096;28;20487;-82
2022/07/23 12:25:05;;;;;;;4.95;3.83;;;;;;;;;;5039820;28;20044;-82
2022/07/23 12:27:31;;;;;;;6.00;3.72;;;;;;;;;;5023930;28;20035;-82
2022/07/23 12:29:57;;;;;;;5.03;3.40;;;;;;;;;;5044426;28;20120;-81
2022/07/23 12:32:25;;;;;;;3.88;3.25;;;;;;;;;;5033597;28;20017;-81
2022/07/23 12:35:06;;;;;;;4.22;3.35;;;;;;;;;;5034226;28;20033;-81
2022/07/23 12:37:34;;;;;;;8.13;3.70;;;;;;;;;;5049729;28;20029;-82
2022/07/23 12:40:30;;;;;;;5.28;3.42;;;;;;;;;;5056737;28;20025;-82
2022/07/23 12:43:04;;;;;;;3.97;3.50;;;;;;;;;;5058841;28;20024;-82
2022/07/23 12:45:43;;;;;;;4.18;3.58;;;;;;;;;;5050763;28;20593;-81
2022/07/23 12:48:16;;;;;;;5.07;3.75;;;;;;;;;;5057586;28;20108;-81
2022/07/23 12:50:51;;;;;;;8.75;4.60;;;;;;;;;;5065404;28;20371;-81
2022/07/23 12:53:45;;;;;;;5.20;3.47;;;;;;;;;;5070136;28;20526;-81
2022/07/23 12:56:37;;;;;;;5.47;3.80;;;;;;;;;;5052560;28;20039;-81
2022/07/23 12:59:16;;;;;;;;;;;;;;;;;;5043725;28;20044;-81
2022/07/23 13:05:22;;;;;;;;;;;;;;;;;;5056390;28;20032;-81
2022/07/23 13:08:09;;;;;;;6.33;4.10;;;;;;;;;;5073530;28;19913;-82
2022/07/23 13:10:35;;;;;;;5.32;3.75;;;;;;;;;;5039553;28;20340;-81
2022/07/23 13:13:00;;;;;;;5.00;4.05;;;;;;;;;;5056072;28;20020;-81
2022/07/23 13:15:25;;;;;;;5.90;3.60;;;;;;;;;;5060656;28;20060;-80
2022/07/23 13:17:51;;;;;;;4.75;3.97;;;;;;;;;;5040117;28;20029;-80
2022/07/23 13:20:16;;;;;;;7.10;3.88;;;;;;;;;;5039660;28;20021;-83
2022/07/23 13:22:42;;;;;;;6.53;4.07;;;;;;;;;;5059128;28;20515;-84
2022/07/23 13:25:08;;;;;;;5.50;3.70;;;;;;;;;;5057975;28;20394;-79
2022/07/23 13:27:34;;;;;;;7.75;4.60;;;;;;;;;;5057791;28;20394;-82
2022/07/23 13:29:59;;;;;;;4.85;3.95;;;;;;;;;;5069801;28;20459;-82
2022/07/23 13:32:24;;;;;;;7.78;4.40;;;;;;;;;;5058749;28;20394;-83
2022/07/23 13:34:50;;;;;;;5.70;4.05;;;;;;;;;;5076563;28;20085;-83
2022/07/23 13:37:15;;;;;;;5.32;4.30;;;;;;;;;;5071823;28;20080;-83
2022/07/23 13:39:40;;;;;;;6.22;4.13;;;;;;;;;;5046489;28;20029;-84
2022/07/23 13:42:06;;;;;;;7.28;4.68;;;;;;;;;;5058505;28;20438;-82
2022/07/23 13:44:31;;;;;;;5.75;4.70;;;;;;;;;;5062152;28;20120;-86
2022/07/23 13:46:57;;;;;;;5.97;4.80;;;;;;;;;;5059882;28;20048;-83
2022/07/23 13:49:22;;;;;;;6.93;3.90;;;;;;;;;;5058454;28;20021;-83
2022/07/23 13:51:47;;;;;;;6.00;4.70;;;;;;;;;;5064316;28;20105;-84
2022/07/23 13:54:13;;;;;;;5.75;3.90;;;;;;;;;;5058458;28;20027;-83
2022/07/23 13:56:38;;;;;;;5.40;4.30;;;;;;;;;;5050446;28;20422;-82
2022/07/23 13:59:04;;;;;;;4.95;4.30;;;;;;;;;;5061659;28;20068;-83
2022/07/23 14:01:29;;;;;;;5.85;4.10;;;;;;;;;;5056412;28;20025;-84
2022/07/23 14:03:54;;;;;;;5.07;4.25;;;;;;;;;;5053972;28;20021;-83
2022/07/23 14:06:21;;;;;;;6.43;4.10;;;;;;;;;;5055956;28;20040;-87
2022/07/23 14:08:47;;;;;;;6.82;4.47;;;;;;;;;;5061063;28;20028;-83
2022/07/23 14:11:12;;;;;;;4.47;3.95;;;;;;;;;;5042858;28;20048;-84
2022/07/23 14:13:38;;;;;;;4.97;4.10;;;;;;;;;;5030252;28;20759;-84
2022/07/23 14:16:03;;;;;;;7.15;4.10;;;;;;;;;;5043437;28;20086;-87
2022/07/23 14:18:29;;;;;;;4.28;3.70;;;;;;;;;;5069435;28;20044;-83
2022/07/23 14:20:54;;;;;;;7.03;4.28;;;;;;;;;;5061254;28;20009;-86
2022/07/23 14:23:19;;;;;;;7.13;4.18;;;;;;;;;;5061177;28;20052;-84
2022/07/23 14:25:45;;;;;;;6.05;4.50;;;;;;;;;;5053938;28;20071;-86
2022/07/23 14:28:11;;;;;;;5.13;4.03;;;;;;;;;;5051571;28;20078;-87
2022/07/23 14:30:37;;;;;;;5.68;4.10;;;;;;;;;;5029896;28;20415;-87
2022/07/23 14:33:02;;;;;;;4.97;4.00;;;;;;;;;;5050718;28;20048;-86
2022/07/23 14:35:28;;;;;;;5.65;4.22;;;;;;;;;;5042608;28;20055;-87
2022/07/23 14:37:53;;;;;;;6.80;4.50;;;;;;;;;;5076032;28;20047;-86
2022/07/23 14:40:18;;;;;;;6.50;4.18;;;;;;;;;;5055297;28;20008;-84
2022/07/23 14:42:44;;;;;;;4.78;3.67;;;;;;;;;;5073233;28;20032;-79
2022/07/23 14:45:09;;;;;;;5.45;3.92;;;;;;;;;;5065361;28;20051;-84
2022/07/23 14:47:35;;;;;;;4.20;3.63;;;;;;;;;;5051450;28;20025;-83
2022/07/23 14:50:00;;;;;;;6.35;4.22;;;;;;;;;;5074368;28;20024;-82
2022/07/23 14:52:26;;;;;;;4.68;3.78;;;;;;;;;;5051946;28;20029;-80
2022/07/23 14:54:51;;;;;;;5.00;4.07;;;;;;;;;;5065106;28;20051;-82